createdAt,value
2018-12-31T00:00:27.796Z,87.19
2018-12-31T00:01:27.787Z,87.19
2018-12-31T00:02:27.774Z,87.40
2018-12-31T00:03:27.762Z,87.44
2018-12-31T00:04:27.774Z,87.19
2018-12-31T00:05:27.743Z,87.40
2018-12-31T00:06:27.737Z,87.50
2018-12-31T00:07:27.722Z,87.81
2018-12-31T00:08:27.708Z,87.60
2018-12-31T00:09:27.716Z,87.60
2018-12-31T00:10:27.687Z,87.50
2018-12-31T00:11:27.674Z,87.81
2018-12-31T00:12:27.653Z,87.50
2018-12-31T00:13:27.651Z,87.81
2018-12-31T00:14:27.653Z,87.95
2018-12-31T00:15:27.626Z,87.95
2018-12-31T00:16:27.618Z,87.74
2018-12-31T00:17:27.615Z,87.92
2018-12-31T00:18:27.599Z,88.12
2018-12-31T00:19:27.601Z,87.92
2018-12-31T00:20:27.577Z,87.50
2018-12-31T00:21:27.564Z,87.81
2018-12-31T00:22:27.697Z,87.29
2018-12-31T00:23:27.541Z,87.92
2018-12-31T00:24:27.542Z,87.81
2018-12-31T00:25:27.519Z,87.40
2018-12-31T00:26:27.514Z,87.92
2018-12-31T00:27:27.501Z,88.43
2018-12-31T00:28:27.487Z,88.68
2018-12-31T00:29:27.569Z,88.64
2018-12-31T00:30:27.463Z,89.25
2018-12-31T00:31:27.455Z,89.19
2018-12-31T00:32:27.445Z,89.61
2018-12-31T00:33:27.434Z,89.71
2018-12-31T00:34:27.435Z,89.61
2018-12-31T00:35:27.411Z,89.61
2018-12-31T00:36:27.389Z,89.87
2018-12-31T00:37:27.387Z,89.87
2018-12-31T00:38:27.377Z,90.02
2018-12-31T00:39:27.379Z,90.95
2018-12-31T00:40:27.354Z,89.92
2018-12-31T00:41:27.344Z,90.02
2018-12-31T00:42:27.334Z,90.22
2018-12-31T00:43:27.324Z,89.61
2018-12-31T00:44:27.324Z,89.71
2018-12-31T00:45:27.300Z,89.50
2018-12-31T00:46:27.290Z,89.50
2018-12-31T00:47:27.277Z,88.95
2018-12-31T00:48:27.265Z,89.19
2018-12-31T00:49:27.271Z,88.95
2018-12-31T00:50:27.247Z,89.29
2018-12-31T00:51:27.232Z,89.05
2018-12-31T00:52:27.221Z,89.56
2018-12-31T00:53:27.219Z,90.02
2018-12-31T00:54:27.213Z,90.12
2018-12-31T00:55:27.191Z,89.98
2018-12-31T00:56:27.179Z,89.81
2018-12-31T00:57:27.169Z,88.98
2018-12-31T00:58:27.158Z,89.81
2018-12-31T00:59:27.228Z,89.61
2018-12-31T01:00:27.136Z,89.50
2018-12-31T01:01:27.124Z,89.61
2018-12-31T01:02:27.117Z,89.50
2018-12-31T01:03:27.103Z,89.71
2018-12-31T01:04:27.104Z,89.81
2018-12-31T01:05:27.083Z,89.92
2018-12-31T01:06:27.070Z,90.53
2018-12-31T01:07:27.061Z,89.81
2018-12-31T01:08:27.047Z,89.61
2018-12-31T01:09:27.053Z,89.61
2018-12-31T01:10:27.025Z,90.22
2018-12-31T01:11:27.017Z,89.92
2018-12-31T01:12:27.006Z,89.98
2018-12-31T01:13:27.003Z,90.19
2018-12-31T01:14:26.998Z,89.92
2018-12-31T01:15:26.973Z,90.12
2018-12-31T01:16:26.959Z,89.98
2018-12-31T01:17:26.950Z,90.53
2018-12-31T01:18:26.939Z,90.12
2018-12-31T01:19:26.938Z,90.22
2018-12-31T01:20:26.919Z,90.12
2018-12-31T01:21:26.907Z,90.12
2018-12-31T01:22:26.897Z,90.02
2018-12-31T01:23:26.885Z,90.12
2018-12-31T01:24:26.894Z,90.12
2018-12-31T01:25:26.863Z,90.12
2018-12-31T01:26:26.851Z,90.12
2018-12-31T01:27:26.842Z,90.22
2018-12-31T01:28:26.827Z,89.77
2018-12-31T01:29:26.833Z,90.02
2018-12-31T01:30:26.806Z,90.12
2018-12-31T01:31:26.794Z,90.12
2018-12-31T01:32:26.782Z,90.22
2018-12-31T01:33:26.779Z,90.22
2018-12-31T01:34:26.776Z,90.12
2018-12-31T01:35:26.755Z,90.12
2018-12-31T01:36:26.742Z,89.92
2018-12-31T01:37:26.732Z,89.92
2018-12-31T01:38:26.719Z,90.02
2018-12-31T01:39:26.724Z,89.92
2018-12-31T01:40:26.695Z,89.92
2018-12-31T01:41:26.690Z,90.12
2018-12-31T01:42:26.685Z,89.92
2018-12-31T01:43:26.673Z,90.02
2018-12-31T01:44:26.673Z,90.02
2018-12-31T01:45:26.643Z,90.22
2018-12-31T01:46:26.632Z,90.74
2018-12-31T01:47:26.697Z,90.53
2018-12-31T01:48:26.608Z,90.89
2018-12-31T01:49:26.613Z,90.78
2018-12-31T01:50:26.588Z,90.78
2018-12-31T01:51:26.577Z,91.09
2018-12-31T01:52:26.562Z,90.99
2018-12-31T01:53:26.551Z,90.99
2018-12-31T01:54:26.556Z,90.99
2018-12-31T01:55:26.534Z,90.89
2018-12-31T01:56:26.521Z,90.78
2018-12-31T01:57:26.509Z,90.74
2018-12-31T01:58:26.499Z,90.78
2018-12-31T01:59:26.522Z,90.99
2018-12-31T02:00:26.475Z,90.53
2018-12-31T02:01:26.466Z,90.47
2018-12-31T02:02:26.459Z,90.78
2018-12-31T02:03:26.447Z,90.78
2018-12-31T02:04:26.441Z,90.58
2018-12-31T02:05:26.438Z,90.68
2018-12-31T02:06:26.411Z,90.68
2018-12-31T02:07:26.401Z,90.78
2018-12-31T02:08:26.391Z,90.78
2018-12-31T02:09:26.379Z,90.78
2018-12-31T02:10:26.381Z,90.64
2018-12-31T02:11:26.359Z,90.47
2018-12-31T02:12:26.346Z,90.78
2018-12-31T02:13:26.338Z,90.58
2018-12-31T02:14:26.325Z,90.68
2018-12-31T02:15:26.330Z,90.78
2018-12-31T02:16:26.306Z,90.68
2018-12-31T02:17:26.292Z,90.47
2018-12-31T02:18:26.277Z,90.58
2018-12-31T02:19:26.276Z,90.78
2018-12-31T02:20:26.273Z,91.09
2018-12-31T02:21:26.251Z,91.20
2018-12-31T02:22:26.237Z,90.89
2018-12-31T02:23:26.226Z,91.20
2018-12-31T02:24:26.216Z,91.40
2018-12-31T02:25:26.217Z,91.30
2018-12-31T02:26:26.188Z,91.82
2018-12-31T02:27:26.184Z,91.61
2018-12-31T02:28:26.167Z,91.92
2018-12-31T02:29:26.161Z,91.61
2018-12-31T02:30:26.182Z,91.65
2018-12-31T02:31:26.139Z,91.55
2018-12-31T02:32:26.134Z,92.07
2018-12-31T02:33:26.116Z,91.65
2018-12-31T02:34:26.105Z,91.65
2018-12-31T02:35:26.104Z,91.44
2018-12-31T02:36:26.086Z,91.50
2018-12-31T02:37:26.069Z,91.65
2018-12-31T02:38:26.061Z,91.55
2018-12-31T02:39:26.057Z,91.61
2018-12-31T02:40:26.053Z,91.71
2018-12-31T02:41:26.040Z,91.71
2018-12-31T02:42:26.021Z,91.71
2018-12-31T02:43:26.006Z,91.71
2018-12-31T02:44:25.994Z,91.92
2018-12-31T02:45:26.000Z,91.71
2018-12-31T02:46:25.974Z,90.78
2018-12-31T02:47:25.963Z,91.09
2018-12-31T02:48:25.953Z,91.96
2018-12-31T02:49:25.946Z,91.92
2018-12-31T02:50:25.945Z,92.02
2018-12-31T02:51:25.927Z,91.20
2018-12-31T02:52:25.912Z,91.92
2018-12-31T02:53:25.899Z,91.71
2018-12-31T02:54:25.887Z,91.82
2018-12-31T02:55:25.885Z,91.82
2018-12-31T02:56:25.876Z,91.82
2018-12-31T02:57:25.852Z,91.50
2018-12-31T02:58:25.841Z,91.55
2018-12-31T02:59:25.833Z,91.09
2018-12-31T03:00:25.840Z,91.44
2018-12-31T03:01:25.814Z,91.82
2018-12-31T03:02:25.800Z,91.65
2018-12-31T03:03:25.787Z,91.75
2018-12-31T03:04:25.783Z,91.71
2018-12-31T03:05:25.777Z,92.07
2018-12-31T03:06:25.754Z,91.86
2018-12-31T03:07:25.745Z,92.07
2018-12-31T03:08:25.732Z,92.17
2018-12-31T03:09:25.718Z,92.07
2018-12-31T03:10:25.721Z,92.07
2018-12-31T03:11:25.773Z,91.96
2018-12-31T03:12:25.671Z,91.86
2018-12-31T03:13:25.676Z,91.96
2018-12-31T03:14:25.669Z,92.27
2018-12-31T03:15:25.668Z,91.55
2018-12-31T03:16:25.641Z,91.75
2018-12-31T03:17:25.630Z,91.55
2018-12-31T03:18:25.621Z,91.55
2018-12-31T03:19:25.608Z,91.55
2018-12-31T03:20:25.610Z,91.55
2018-12-31T03:21:25.587Z,91.55
2018-12-31T03:22:25.578Z,91.55
2018-12-31T03:23:25.565Z,91.75
2018-12-31T03:24:25.555Z,91.55
2018-12-31T03:25:25.639Z,91.55
2018-12-31T03:26:25.531Z,91.55
2018-12-31T03:27:25.519Z,91.55
2018-12-31T03:28:25.525Z,91.65
2018-12-31T03:29:25.502Z,91.65
2018-12-31T03:30:25.503Z,91.96
2018-12-31T03:31:25.479Z,91.50
2018-12-31T03:32:25.465Z,91.96
2018-12-31T03:33:25.452Z,91.96
2018-12-31T03:34:25.444Z,91.65
2018-12-31T03:35:25.447Z,92.07
2018-12-31T03:36:25.417Z,91.86
2018-12-31T03:37:25.408Z,91.75
2018-12-31T03:38:25.397Z,91.96
2018-12-31T03:39:26.337Z,91.65
2018-12-31T03:40:25.392Z,92.17
2018-12-31T03:41:25.366Z,91.30
2018-12-31T03:42:25.354Z,91.50
2018-12-31T03:43:25.341Z,91.40
2018-12-31T03:44:27.169Z,90.99
2018-12-31T03:45:25.333Z,91.55
2018-12-31T03:46:25.308Z,92.07
2018-12-31T03:47:25.299Z,91.55
2018-12-31T03:48:25.292Z,90.62
2018-12-31T03:49:25.275Z,90.62
2018-12-31T03:50:25.282Z,90.93
2018-12-31T03:51:25.253Z,91.09
2018-12-31T03:52:25.241Z,91.30
2018-12-31T03:53:25.240Z,91.24
2018-12-31T03:54:25.220Z,91.75
2018-12-31T03:55:25.224Z,91.65
2018-12-31T03:56:25.196Z,91.71
2018-12-31T03:57:25.183Z,91.86
2018-12-31T03:58:25.174Z,91.71
2018-12-31T03:59:25.176Z,91.92
2018-12-31T04:00:25.165Z,91.61
2018-12-31T04:01:25.143Z,91.71
2018-12-31T04:02:25.132Z,91.44
2018-12-31T04:03:25.123Z,91.65
2018-12-31T04:04:25.110Z,91.40
2018-12-31T04:05:25.117Z,91.55
2018-12-31T04:06:25.085Z,91.71
2018-12-31T04:07:25.076Z,91.96
2018-12-31T04:08:25.063Z,91.40
2018-12-31T04:09:25.052Z,91.40
2018-12-31T04:10:25.041Z,91.65
2018-12-31T04:11:25.047Z,91.61
2018-12-31T04:12:25.018Z,91.55
2018-12-31T04:13:25.012Z,91.55
2018-12-31T04:14:24.995Z,91.44
2018-12-31T04:15:24.986Z,91.44
2018-12-31T04:16:24.990Z,91.55
2018-12-31T04:17:24.962Z,91.40
2018-12-31T04:18:24.954Z,91.20
2018-12-31T04:19:24.938Z,91.75
2018-12-31T04:20:24.930Z,91.71
2018-12-31T04:21:24.934Z,92.02
2018-12-31T04:22:24.913Z,91.92
2018-12-31T04:23:24.900Z,92.23
2018-12-31T04:24:24.892Z,91.50
2018-12-31T04:25:24.874Z,91.09
2018-12-31T04:26:24.874Z,90.89
2018-12-31T04:27:24.850Z,90.68
2018-12-31T04:28:24.840Z,91.34
2018-12-31T04:29:24.830Z,90.99
2018-12-31T04:30:24.822Z,90.78
2018-12-31T04:31:24.840Z,90.58
2018-12-31T04:32:24.796Z,90.47
2018-12-31T04:33:24.783Z,90.58
2018-12-31T04:34:24.771Z,90.58
2018-12-31T04:35:24.760Z,90.78
2018-12-31T04:36:24.762Z,90.78
2018-12-31T04:37:24.741Z,90.47
2018-12-31T04:38:24.727Z,90.99
2018-12-31T04:39:24.729Z,90.68
2018-12-31T04:40:24.707Z,90.89
2018-12-31T04:41:24.712Z,91.09
2018-12-31T04:42:24.695Z,91.09
2018-12-31T04:43:24.672Z,91.09
2018-12-31T04:44:24.662Z,90.89
2018-12-31T04:45:24.649Z,91.09
2018-12-31T04:46:24.657Z,91.92
2018-12-31T04:47:24.628Z,91.82
2018-12-31T04:48:24.617Z,91.92
2018-12-31T04:49:24.604Z,91.61
2018-12-31T04:50:24.595Z,91.61
2018-12-31T04:51:24.607Z,91.71
2018-12-31T04:52:24.569Z,91.96
2018-12-31T04:53:24.565Z,91.65
2018-12-31T04:54:24.552Z,91.75
2018-12-31T04:55:24.528Z,91.30
2018-12-31T04:56:24.542Z,91.55
2018-12-31T04:57:24.516Z,91.96
2018-12-31T04:58:24.507Z,92.07
2018-12-31T04:59:24.494Z,91.61
2018-12-31T05:00:24.491Z,91.86
2018-12-31T05:01:24.483Z,92.07
2018-12-31T05:02:24.471Z,92.07
2018-12-31T05:03:24.450Z,91.96
2018-12-31T05:04:24.441Z,92.07
2018-12-31T05:05:24.432Z,92.17
2018-12-31T05:06:24.427Z,92.13
2018-12-31T05:07:24.406Z,91.92
2018-12-31T05:08:24.396Z,92.13
2018-12-31T05:09:24.385Z,92.02
2018-12-31T05:10:24.376Z,91.92
2018-12-31T05:11:24.378Z,92.44
2018-12-31T05:12:24.352Z,92.44
2018-12-31T05:13:24.341Z,93.41
2018-12-31T05:14:24.337Z,92.89
2018-12-31T05:15:24.318Z,92.64
2018-12-31T05:16:24.317Z,93.05
2018-12-31T05:17:24.295Z,93.51
2018-12-31T05:18:24.286Z,94.13
2018-12-31T05:19:24.277Z,94.13
2018-12-31T05:20:24.261Z,94.44
2018-12-31T05:21:24.269Z,94.34
2018-12-31T05:22:24.241Z,95.06
2018-12-31T05:23:24.231Z,95.27
2018-12-31T05:24:24.225Z,95.06
2018-12-31T05:25:24.211Z,94.85
2018-12-31T05:26:24.212Z,94.96
2018-12-31T05:27:24.185Z,95.17
2018-12-31T05:28:24.175Z,95.48
2018-12-31T05:29:24.163Z,95.48
2018-12-31T05:30:24.154Z,95.27
2018-12-31T05:31:24.155Z,96.03
2018-12-31T05:32:24.132Z,96.14
2018-12-31T05:33:24.119Z,95.48
2018-12-31T05:34:24.107Z,95.99
2018-12-31T05:35:24.100Z,96.61
2018-12-31T05:36:24.100Z,95.99
2018-12-31T05:37:24.079Z,96.09
2018-12-31T05:38:24.071Z,96.51
2018-12-31T05:39:24.055Z,96.72
2018-12-31T05:40:24.043Z,95.78
2018-12-31T05:41:24.042Z,95.57
2018-12-31T05:42:24.018Z,95.78
2018-12-31T05:43:24.007Z,95.89
2018-12-31T05:44:23.996Z,95.89
2018-12-31T05:45:23.987Z,95.89
2018-12-31T05:46:23.985Z,95.89
2018-12-31T05:47:23.961Z,95.68
2018-12-31T05:48:23.951Z,95.37
2018-12-31T05:49:23.941Z,95.48
2018-12-31T05:50:23.933Z,95.57
2018-12-31T05:51:23.933Z,95.27
2018-12-31T05:52:23.910Z,95.68
2018-12-31T05:53:23.899Z,95.78
2018-12-31T05:54:23.887Z,95.48
2018-12-31T05:55:23.875Z,95.57
2018-12-31T05:56:23.876Z,95.68
2018-12-31T05:57:23.852Z,95.48
2018-12-31T05:58:23.841Z,95.48
2018-12-31T05:59:23.829Z,95.48
2018-12-31T06:00:23.817Z,95.17
2018-12-31T06:01:23.825Z,95.57
2018-12-31T06:02:23.796Z,95.17
2018-12-31T06:03:23.786Z,95.53
2018-12-31T06:04:23.773Z,95.17
2018-12-31T06:05:23.766Z,95.27
2018-12-31T06:06:23.767Z,95.48
2018-12-31T06:07:23.746Z,95.57
2018-12-31T06:08:23.732Z,95.48
2018-12-31T06:09:23.721Z,95.57
2018-12-31T06:10:23.710Z,95.37
2018-12-31T06:11:23.735Z,95.48
2018-12-31T06:12:23.686Z,95.37
2018-12-31T06:13:23.678Z,95.17
2018-12-31T06:14:23.668Z,95.48
2018-12-31T06:15:23.653Z,95.94
2018-12-31T06:16:23.640Z,95.94
2018-12-31T06:17:23.642Z,96.03
2018-12-31T06:18:23.617Z,95.89
2018-12-31T06:19:23.607Z,95.68
2018-12-31T06:20:23.596Z,95.99
2018-12-31T06:21:23.587Z,95.94
2018-12-31T06:22:23.587Z,95.83
2018-12-31T06:23:23.562Z,95.73
2018-12-31T06:24:23.551Z,96.76
2018-12-31T06:25:23.539Z,95.94
2018-12-31T06:26:23.528Z,96.03
2018-12-31T06:27:23.531Z,96.03
2018-12-31T06:28:23.506Z,96.14
2018-12-31T06:29:23.571Z,96.14
2018-12-31T06:30:23.490Z,96.86
2018-12-31T06:31:23.475Z,96.14
2018-12-31T06:32:23.473Z,95.37
2018-12-31T06:33:23.456Z,95.78
2018-12-31T06:34:23.444Z,95.89
2018-12-31T06:35:23.429Z,95.62
2018-12-31T06:36:23.420Z,95.89
2018-12-31T06:37:23.424Z,95.78
2018-12-31T06:38:23.394Z,95.37
2018-12-31T06:39:23.383Z,95.89
2018-12-31T06:40:23.378Z,95.83
2018-12-31T06:41:23.362Z,96.14
2018-12-31T06:42:23.361Z,96.61
2018-12-31T06:43:23.338Z,96.55
2018-12-31T06:44:23.334Z,96.55
2018-12-31T06:45:23.315Z,96.34
2018-12-31T06:46:23.306Z,96.34
2018-12-31T06:47:23.327Z,96.45
2018-12-31T06:48:23.283Z,96.66
2018-12-31T06:49:23.270Z,96.51
2018-12-31T06:50:23.259Z,96.51
2018-12-31T06:51:23.245Z,96.55
2018-12-31T06:52:23.253Z,96.66
2018-12-31T06:53:23.224Z,96.41
2018-12-31T06:54:23.226Z,96.34
2018-12-31T06:55:23.201Z,96.45
2018-12-31T06:56:23.193Z,96.66
2018-12-31T06:57:23.197Z,96.41
2018-12-31T06:58:23.172Z,96.45
2018-12-31T06:59:23.160Z,96.41
2018-12-31T07:00:23.150Z,96.55
2018-12-31T07:01:23.143Z,96.34
2018-12-31T07:02:23.138Z,96.34
2018-12-31T07:03:23.114Z,96.55
2018-12-31T07:04:23.104Z,96.51
2018-12-31T07:05:23.092Z,96.34
2018-12-31T07:06:23.079Z,96.55
2018-12-31T07:07:23.079Z,96.30
2018-12-31T07:08:23.061Z,96.55
2018-12-31T07:09:23.048Z,96.34
2018-12-31T07:10:23.042Z,96.41
2018-12-31T07:11:23.024Z,96.45
2018-12-31T07:12:23.022Z,96.66
2018-12-31T07:13:23.001Z,96.55
2018-12-31T07:14:22.991Z,96.51
2018-12-31T07:15:22.979Z,96.41
2018-12-31T07:16:22.968Z,96.51
2018-12-31T07:17:22.972Z,96.41
2018-12-31T07:18:22.944Z,96.66
2018-12-31T07:19:22.931Z,96.61
2018-12-31T07:20:22.926Z,96.66
2018-12-31T07:21:22.910Z,96.51
2018-12-31T07:22:22.918Z,96.34
2018-12-31T07:23:22.890Z,96.66
2018-12-31T07:24:22.878Z,96.34
2018-12-31T07:25:22.870Z,96.55
2018-12-31T07:26:22.853Z,96.82
2018-12-31T07:27:22.857Z,96.66
2018-12-31T07:28:22.831Z,96.97
2018-12-31T07:29:22.820Z,96.55
2018-12-31T07:30:22.808Z,96.55
2018-12-31T07:31:22.799Z,97.02
2018-12-31T07:32:22.800Z,97.28
2018-12-31T07:33:22.779Z,96.97
2018-12-31T07:34:22.767Z,97.17
2018-12-31T07:35:22.756Z,97.13
2018-12-31T07:36:22.745Z,97.07
2018-12-31T07:37:22.743Z,97.02
2018-12-31T07:38:22.721Z,96.97
2018-12-31T07:39:22.711Z,97.07
2018-12-31T07:40:22.702Z,96.86
2018-12-31T07:41:22.688Z,96.86
2018-12-31T07:42:22.685Z,97.02
2018-12-31T07:43:22.665Z,97.02
2018-12-31T07:44:22.653Z,96.51
2018-12-31T07:45:22.641Z,97.28
2018-12-31T07:46:22.682Z,96.92
2018-12-31T07:47:22.635Z,97.23
2018-12-31T07:48:22.607Z,97.49
2018-12-31T07:49:22.595Z,97.33
2018-12-31T07:50:22.583Z,97.23
2018-12-31T07:51:22.573Z,97.13
2018-12-31T07:52:22.573Z,97.44
2018-12-31T07:53:22.549Z,96.51
2018-12-31T07:54:22.537Z,96.72
2018-12-31T07:55:22.527Z,96.92
2018-12-31T07:56:22.516Z,96.72
2018-12-31T07:57:22.541Z,96.92
2018-12-31T07:58:22.491Z,96.92
2018-12-31T07:59:22.483Z,96.92
2018-12-31T08:00:22.475Z,97.13
2018-12-31T08:01:22.464Z,96.61
2018-12-31T08:02:22.462Z,96.92
2018-12-31T08:03:22.443Z,97.02
2018-12-31T08:04:22.431Z,96.72
2018-12-31T08:05:22.418Z,97.13
2018-12-31T08:06:22.406Z,96.98
2018-12-31T08:07:22.410Z,97.02
2018-12-31T08:08:22.382Z,96.92
2018-12-31T08:09:22.370Z,96.92
2018-12-31T08:10:22.362Z,97.02
2018-12-31T08:11:22.350Z,97.02
2018-12-31T08:12:22.350Z,96.88
2018-12-31T08:13:22.325Z,97.19
2018-12-31T08:14:22.315Z,96.67
2018-12-31T08:15:22.307Z,97.39
2018-12-31T08:16:22.293Z,97.44
2018-12-31T08:17:22.315Z,96.72
2018-12-31T08:18:22.271Z,97.29
2018-12-31T08:19:22.257Z,97.33
2018-12-31T08:20:22.250Z,95.99
2018-12-31T08:21:22.237Z,96.51
2018-12-31T08:22:22.225Z,97.23
2018-12-31T08:23:22.229Z,96.98
2018-12-31T08:24:22.202Z,97.08
2018-12-31T08:25:22.178Z,95.95
2018-12-31T08:26:22.181Z,97.29
2018-12-31T08:27:22.172Z,97.19
2018-12-31T08:28:22.172Z,97.08
2018-12-31T08:29:22.153Z,97.23
2018-12-31T08:30:22.137Z,96.77
2018-12-31T08:31:22.128Z,96.36
2018-12-31T08:32:22.116Z,96.82
2018-12-31T08:33:22.116Z,97.23
2018-12-31T08:34:22.092Z,97.08
2018-12-31T08:35:22.081Z,97.19
2018-12-31T08:36:22.073Z,96.88
2018-12-31T08:37:22.060Z,97.08
2018-12-31T08:38:22.064Z,96.77
2018-12-31T08:39:22.037Z,96.88
2018-12-31T08:40:22.024Z,96.67
2018-12-31T08:41:22.013Z,96.88
2018-12-31T08:42:22.001Z,97.19
2018-12-31T08:43:22.007Z,96.88
2018-12-31T08:44:21.979Z,96.88
2018-12-31T08:45:21.966Z,97.29
2018-12-31T08:46:21.955Z,97.29
2018-12-31T08:47:21.945Z,97.34
2018-12-31T08:48:21.943Z,97.34
2018-12-31T08:49:21.922Z,96.94
2018-12-31T08:50:21.914Z,96.98
2018-12-31T08:51:21.905Z,96.77
2018-12-31T08:52:21.893Z,96.11
2018-12-31T08:53:21.892Z,96.47
2018-12-31T08:54:21.869Z,96.73
2018-12-31T08:55:21.859Z,96.88
2018-12-31T08:56:21.846Z,96.98
2018-12-31T08:57:21.835Z,96.67
2018-12-31T08:58:21.840Z,96.67
2018-12-31T08:59:21.817Z,96.83
2018-12-31T09:00:21.794Z,96.73
2018-12-31T09:01:21.793Z,97.14
2018-12-31T09:02:21.782Z,96.83
2018-12-31T09:03:21.781Z,96.73
2018-12-31T09:04:21.756Z,96.47
2018-12-31T09:05:21.746Z,96.94
2018-12-31T09:06:21.735Z,96.21
2018-12-31T09:07:21.722Z,96.83
2018-12-31T09:08:21.727Z,96.94
2018-12-31T09:09:21.702Z,96.62
2018-12-31T09:10:21.694Z,96.94
2018-12-31T09:11:22.790Z,96.94
2018-12-31T09:12:21.664Z,96.31
2018-12-31T09:13:21.667Z,97.04
2018-12-31T09:14:21.647Z,97.25
2018-12-31T09:15:21.639Z,97.25
2018-12-31T09:16:21.623Z,96.83
2018-12-31T09:17:21.611Z,96.73
2018-12-31T09:18:21.611Z,96.48
2018-12-31T09:19:21.588Z,96.62
2018-12-31T09:20:21.579Z,96.42
2018-12-31T09:21:21.565Z,96.69
2018-12-31T09:22:21.556Z,96.79
2018-12-31T09:23:21.553Z,96.79
2018-12-31T09:24:21.530Z,96.89
2018-12-31T09:25:21.522Z,96.89
2018-12-31T09:26:21.510Z,95.86
2018-12-31T09:27:21.496Z,96.79
2018-12-31T09:28:21.498Z,96.79
2018-12-31T09:29:21.476Z,96.89
2018-12-31T09:30:21.462Z,96.48
2018-12-31T09:31:21.453Z,96.17
2018-12-31T09:32:21.441Z,96.37
2018-12-31T09:33:21.482Z,96.17
2018-12-31T09:34:21.421Z,96.27
2018-12-31T09:35:21.406Z,96.37
2018-12-31T09:36:21.394Z,96.27
2018-12-31T09:37:21.387Z,96.17
2018-12-31T09:38:21.388Z,96.58
2018-12-31T09:39:21.361Z,95.55
2018-12-31T09:40:21.350Z,95.45
2018-12-31T09:41:21.339Z,95.55
2018-12-31T09:42:21.327Z,95.76
2018-12-31T09:43:21.331Z,95.45
2018-12-31T09:44:21.307Z,95.76
2018-12-31T09:45:21.296Z,95.71
2018-12-31T09:46:21.276Z,95.65
2018-12-31T09:47:21.274Z,95.76
2018-12-31T09:48:21.274Z,95.86
2018-12-31T09:49:21.251Z,96.48
2018-12-31T09:50:21.242Z,96.33
2018-12-31T09:51:21.229Z,96.33
2018-12-31T09:52:21.218Z,96.64
2018-12-31T09:53:21.218Z,95.86
2018-12-31T09:54:21.194Z,95.92
2018-12-31T09:55:21.186Z,96.44
2018-12-31T09:56:21.171Z,96.53
2018-12-31T09:57:21.152Z,96.12
2018-12-31T09:58:21.163Z,95.81
2018-12-31T09:59:21.136Z,95.40
2018-12-31T10:00:21.131Z,95.65
2018-12-31T10:01:21.114Z,96.37
2018-12-31T10:02:21.113Z,96.23
2018-12-31T10:03:21.107Z,96.48
2018-12-31T10:04:21.622Z,96.99
2018-12-31T10:05:21.074Z,96.84
2018-12-31T10:06:21.048Z,96.69
2018-12-31T10:07:21.053Z,96.74
2018-12-31T10:08:21.056Z,97.09
2018-12-31T10:09:21.300Z,96.79
2018-12-31T10:10:21.028Z,96.99
2018-12-31T10:11:21.010Z,96.79
2018-12-31T10:12:21.064Z,96.89
2018-12-31T10:13:20.999Z,96.48
2018-12-31T10:14:20.970Z,95.92
2018-12-31T10:15:20.960Z,96.58
2018-12-31T10:16:20.947Z,97.20
2018-12-31T10:17:20.938Z,96.74
2018-12-31T10:18:20.945Z,96.89
2018-12-31T10:19:20.914Z,96.79
2018-12-31T10:20:20.910Z,96.79
2018-12-31T10:21:20.899Z,96.69
2018-12-31T10:22:20.882Z,96.74
2018-12-31T10:23:20.884Z,96.89
2018-12-31T10:24:20.865Z,96.23
2018-12-31T10:25:20.850Z,96.99
2018-12-31T10:26:20.839Z,96.84
2018-12-31T10:27:20.848Z,96.79
2018-12-31T10:28:20.811Z,96.64
2018-12-31T10:29:20.966Z,96.74
2018-12-31T10:30:20.795Z,97.16
2018-12-31T10:31:20.784Z,97.16
2018-12-31T10:32:21.040Z,96.23
2018-12-31T10:37:20.766Z,97.26
2018-12-31T10:38:20.749Z,96.91
2018-12-31T10:39:20.808Z,96.59
2018-12-31T10:40:20.729Z,96.95
2018-12-31T10:41:20.721Z,97.11
2018-12-31T10:42:20.708Z,96.84
2018-12-31T10:43:21.050Z,96.53
2018-12-31T10:44:20.744Z,96.84
2018-12-31T10:45:20.725Z,96.84
2018-12-31T10:46:20.659Z,96.64
2018-12-31T10:47:21.130Z,96.70
2018-12-31T10:48:20.636Z,96.59
2018-12-31T10:49:21.282Z,96.49
2018-12-31T10:50:20.618Z,96.70
2018-12-31T10:51:20.599Z,96.53
2018-12-31T10:52:20.969Z,96.80
2018-12-31T10:53:20.582Z,96.70
2018-12-31T10:54:20.581Z,96.80
2018-12-31T10:55:20.576Z,96.70
2018-12-31T10:56:20.546Z,97.21
2018-12-31T10:57:20.540Z,97.21
2018-12-31T10:58:20.531Z,96.70
2018-12-31T10:59:20.522Z,96.34
2018-12-31T11:00:20.502Z,96.91
2018-12-31T11:01:20.499Z,96.75
2018-12-31T11:02:20.504Z,96.86
2018-12-31T11:03:20.495Z,96.66
2018-12-31T11:04:20.470Z,96.66
2018-12-31T11:05:20.460Z,96.24
2018-12-31T11:06:20.448Z,96.45
2018-12-31T11:07:20.457Z,96.45
2018-12-31T11:08:20.609Z,96.34
2018-12-31T11:09:20.410Z,95.62
2018-12-31T11:10:20.419Z,95.83
2018-12-31T11:11:20.384Z,96.45
2018-12-31T11:12:20.371Z,96.34
2018-12-31T11:13:20.353Z,96.86
2018-12-31T11:14:20.378Z,96.55
2018-12-31T11:15:20.339Z,96.66
2018-12-31T11:16:20.402Z,96.61
2018-12-31T11:17:20.314Z,96.81
2018-12-31T11:18:20.300Z,96.92
2018-12-31T11:19:20.312Z,96.61
2018-12-31T11:20:20.328Z,96.09
2018-12-31T11:21:20.274Z,96.50
2018-12-31T11:22:20.259Z,96.20
2018-12-31T11:23:20.255Z,96.41
2018-12-31T11:24:20.265Z,96.36
2018-12-31T11:25:20.222Z,96.20
2018-12-31T11:26:20.258Z,95.89
2018-12-31T11:27:20.200Z,96.20
2018-12-31T11:28:20.193Z,96.30
2018-12-31T11:29:20.191Z,96.36
2018-12-31T11:30:20.190Z,96.15
2018-12-31T11:31:20.164Z,96.56
2018-12-31T11:32:20.141Z,96.88
2018-12-31T11:33:20.146Z,96.56
2018-12-31T11:34:20.173Z,96.67
2018-12-31T11:35:20.119Z,96.92
2018-12-31T11:36:20.159Z,96.61
2018-12-31T11:37:20.089Z,96.77
2018-12-31T11:38:20.078Z,96.56
2018-12-31T11:39:20.100Z,96.67
2018-12-31T11:40:20.079Z,96.97
2018-12-31T11:41:20.060Z,96.88
2018-12-31T11:42:20.025Z,96.46
2018-12-31T11:43:20.023Z,96.56
2018-12-31T11:44:20.023Z,96.67
2018-12-31T11:45:20.014Z,96.67
2018-12-31T11:46:19.982Z,96.97
2018-12-31T11:47:19.974Z,96.67
2018-12-31T11:48:19.986Z,96.36
2018-12-31T11:49:19.989Z,96.62
2018-12-31T11:50:19.950Z,96.62
2018-12-31T11:51:19.941Z,96.72
2018-12-31T11:52:19.916Z,96.62
2018-12-31T11:53:19.932Z,96.31
2018-12-31T11:54:19.907Z,96.72
2018-12-31T11:55:19.883Z,96.52
2018-12-31T11:56:19.869Z,96.72
2018-12-31T11:57:19.868Z,96.62
2018-12-31T11:58:19.862Z,96.52
2018-12-31T11:59:19.864Z,96.62
2018-12-31T12:00:19.835Z,96.88
2018-12-31T12:01:19.825Z,97.03
2018-12-31T12:02:23.454Z,96.93
2018-12-31T12:03:19.801Z,97.03
2018-12-31T12:04:20.550Z,96.93
2018-12-31T12:05:19.782Z,96.72
2018-12-31T12:06:19.771Z,96.36
2018-12-31T12:07:19.750Z,96.67
2018-12-31T12:08:19.754Z,96.88
2018-12-31T12:09:19.756Z,96.36
2018-12-31T12:10:19.732Z,97.08
2018-12-31T12:11:19.712Z,96.97
2018-12-31T12:12:19.695Z,96.36
2018-12-31T12:13:19.727Z,96.46
2018-12-31T12:14:19.680Z,96.56
2018-12-31T12:15:19.660Z,96.56
2018-12-31T12:16:19.664Z,96.36
2018-12-31T12:17:19.643Z,96.56
2018-12-31T12:18:19.625Z,96.72
2018-12-31T12:19:19.634Z,96.67
2018-12-31T12:20:19.605Z,96.67
2018-12-31T12:21:19.598Z,96.36
2018-12-31T12:22:19.589Z,96.31
2018-12-31T12:23:19.582Z,96.31
2018-12-31T12:24:19.575Z,96.56
2018-12-31T12:25:19.560Z,96.67
2018-12-31T12:26:19.539Z,96.67
2018-12-31T12:27:19.529Z,96.62
2018-12-31T12:28:19.515Z,96.62
2018-12-31T12:29:19.525Z,96.42
2018-12-31T12:30:19.504Z,96.31
2018-12-31T12:31:19.482Z,96.11
2018-12-31T12:32:19.477Z,96.52
2018-12-31T12:33:20.194Z,96.52
2018-12-31T12:34:19.834Z,96.62
2018-12-31T12:35:19.449Z,96.52
2018-12-31T12:36:19.430Z,96.52
2018-12-31T12:37:19.417Z,96.52
2018-12-31T12:38:19.409Z,96.42
2018-12-31T12:39:19.428Z,96.42
2018-12-31T12:40:19.396Z,96.62
2018-12-31T12:41:19.386Z,96.31
2018-12-31T12:42:19.356Z,96.62
2018-12-31T12:43:19.349Z,96.42
2018-12-31T12:44:19.344Z,96.52
2018-12-31T12:45:19.355Z,96.21
2018-12-31T12:46:19.322Z,96.21
2018-12-31T12:47:19.305Z,96.42
2018-12-31T12:48:19.293Z,96.27
2018-12-31T12:49:19.285Z,96.72
2018-12-31T12:50:19.289Z,96.62
2018-12-31T12:51:19.287Z,96.58
2018-12-31T12:52:19.248Z,96.58
2018-12-31T12:53:19.362Z,96.52
2018-12-31T12:54:19.228Z,96.52
2018-12-31T12:55:19.228Z,96.47
2018-12-31T12:56:19.234Z,96.62